Time;durP1;ratioP1;P1;durP2;ratioP2;P2;SDS_P1;SDS_P2;PMS_P1;PMS_P2;Temp;Humidity;BMP_temperature;BMP_pressure;BME280_temperature;BME280_humidity;BME280_pressure;Samples;Min_cycle;Max_cycle;Signal;HPM_P1;HPM_P2
2022/07/14 00:00:40;;;;;;;;;;;;;;;19.02;55.20;101051.98;1664303;85;27509;-59
2022/07/14 00:03:08;;;;;;;;;;;;;;;19.03;55.05;101064.09;1666538;84;26273;-60
2022/07/14 00:05:36;;;;;;;;;;;;;;;19.04;55.05;101058.98;1664239;84;25490;-59
2022/07/14 00:08:03;;;;;;;;;;;;;;;19.06;55.25;101045.15;1670719;84;26150;-59
2022/07/14 00:10:30;;;;;;;;;;;;;;;19.07;55.58;101046.84;1679290;84;25833;-59
2022/07/14 00:12:56;;;;;;;;;;;;;;;19.06;55.83;101050.07;1666858;84;28276;-59
2022/07/14 00:15:23;;;;;;;;;;;;;;;19.02;56.10;101061.53;1668341;84;25701;-59
2022/07/14 00:17:50;;;;;;;;;;;;;;;18.98;56.05;101056.97;1672937;84;25814;-59
2022/07/14 00:20:17;;;;;;;;;;;;;;;18.95;56.05;101060.58;1668829;85;26150;-59
2022/07/14 00:22:44;;;;;;;;;;;;;;;18.91;56.07;101063.66;1674403;84;25523;-59
2022/07/14 00:25:11;;;;;;;;;;;;;;;18.84;56.65;101059.95;1669299;84;27469;-59
2022/07/14 00:27:37;;;;;;;;;;;;;;;18.78;56.70;101072.44;1673788;84;25838;-60
2022/07/14 00:30:06;;;;;;;;;;;;;;;18.72;56.84;101070.98;1659643;84;26007;-59
2022/07/14 00:32:37;;;;;;;;;;;;;;;18.66;57.32;101078.00;1670071;85;26789;-59
2022/07/14 00:35:03;;;;;;;;;;;;;;;18.59;57.43;101086.05;1658927;85;25869;-59
2022/07/14 00:37:30;;;;;;;;;;;;;;;18.56;57.60;101081.48;1669549;85;28361;-59
2022/07/14 00:39:56;;;;;;;;;;;;;;;18.51;57.65;101090.73;1663605;84;25729;-59
2022/07/14 00:42:34;;;;;;;;;;;;;;;18.43;57.76;101077.47;1667517;84;25811;-59
2022/07/14 00:45:03;;;;;;;;;;;;;;;18.39;58.15;101088.41;1677217;84;26143;-59
2022/07/14 00:47:30;;;;;;;;;;;;;;;18.34;58.44;101091.34;1676223;84;25835;-59
2022/07/14 00:49:58;;;;;;;;;;;;;;;18.29;58.31;101090.51;1678449;84;27616;-59
2022/07/14 00:52:27;;;;;;;;;;;;;;;18.27;58.81;101089.84;1672474;84;27312;-59
2022/07/14 00:54:55;;;;;;;;;;;;;;;18.20;58.75;101091.06;1656333;84;25938;-59
2022/07/14 00:57:21;;;;;;;;;;;;;;;18.15;58.87;101091.59;1671696;84;26227;-59
2022/07/14 00:59:48;;;;;;;;;;;;;;;18.11;58.68;101086.69;1671264;84;26064;-59
2022/07/14 01:02:17;;;;;;;;;;;;;;;18.07;59.31;101098.97;1670983;84;27515;-59
2022/07/14 01:04:48;;;;;;;;;;;;;;;17.98;59.33;101092.70;1677982;83;26414;-59
2022/07/14 01:07:16;;;;;;;;;;;;;;;17.93;59.70;101091.00;1709800;83;25813;-59
2022/07/14 01:09:43;;;;;;;;;;;;;;;17.88;59.80;101088.81;1707811;83;26201;-60
2022/07/14 01:12:10;;;;;;;;;;;;;;;17.80;60.00;101091.05;1700118;83;25977;-60
2022/07/14 01:14:38;;;;;;;;;;;;;;;17.73;60.37;101092.78;1696965;83;27454;-60
2022/07/14 01:17:06;;;;;;;;;;;;;;;17.67;60.28;101088.88;1707096;82;25852;-60
2022/07/14 01:19:35;;;;;;;;;;;;;;;17.62;60.81;101086.34;1707040;83;25910;-60
2022/07/14 01:22:02;;;;;;;;;;;;;;;17.55;60.81;101087.58;1702568;82;26144;-60
2022/07/14 01:24:30;;;;;;;;;;;;;;;17.50;60.95;101088.59;1701842;83;25896;-60
2022/07/14 01:26:57;;;;;;;;;;;;;;;17.48;61.07;101087.95;1704519;83;27457;-59
2022/07/14 01:29:26;;;;;;;;;;;;;;;17.48;61.29;101090.67;1700359;83;25950;-59
2022/07/14 01:31:53;;;;;;;;;;;;;;;17.51;61.28;101089.81;1713846;83;25776;-60
2022/07/14 01:34:19;;;;;;;;;;;;;;;17.53;61.59;101086.91;1707736;82;26093;-60
2022/07/14 01:36:49;;;;;;;;;;;;;;;17.56;62.25;101089.28;1703901;82;25793;-60
2022/07/14 01:39:15;;;;;;;;;;;;;;;17.51;62.24;101087.09;1693726;83;27470;-60
2022/07/14 01:41:43;;;;;;;;;;;;;;;17.52;62.23;101084.70;1668784;83;25846;-60
2022/07/14 01:44:10;;;;;;;;;;;;;;;17.58;62.36;101091.30;1666200;84;25754;-59
2022/07/14 01:46:40;;;;;;;;;;;;;;;17.68;62.01;101092.47;1678095;82;26113;-60
2022/07/14 01:49:07;;;;;;;;;;;;;;;17.78;61.76;101082.23;1699051;83;25854;-60
2022/07/14 01:51:34;;;;;;;;;;;;;;;17.88;61.45;101091.54;1696256;82;27408;-60
2022/07/14 01:54:04;;;;;;;;;;;;;;;17.97;61.17;101100.56;1691345;83;25731;-60
2022/07/14 01:56:33;;;;;;;;;;;;;;;18.05;60.87;101104.61;1693175;83;25755;-60
2022/07/14 02:03:00;;;;;;;;;;;;;;;18.13;60.36;101104.56;1689183;83;25767;-59
2022/07/14 02:05:27;;;;;;;;;;;;;;;18.21;60.05;101107.73;1687451;83;28409;-57
2022/07/14 02:07:54;;;;;;;;;;;;;;;18.26;60.06;101113.51;1708239;83;25967;-59
2022/07/14 02:13:08;;;;;;;;;;;;;;;18.28;60.48;101114.69;1704282;83;26219;-59
2022/07/14 02:15:34;;;;;;;;;;;;;;;18.26;60.47;101113.51;1703334;83;25888;-59
2022/07/14 02:18:01;;;;;;;;;;;;;;;18.24;60.77;101110.64;1699814;83;27487;-59
2022/07/14 02:20:27;;;;;;;;;;;;;;;18.20;60.65;101107.39;1709161;83;25772;-59
2022/07/14 02:22:54;;;;;;;;;;;;;;;18.18;60.70;101111.33;1697313;82;25467;-59
2022/07/14 02:25:21;;;;;;;;;;;;;;;18.14;60.92;101115.79;1711244;83;26548;-59
2022/07/14 02:27:47;;;;;;;;;;;;;;;18.15;60.77;101113.90;1709382;83;25422;-59
2022/07/14 02:30:14;;;;;;;;;;;;;;;18.14;60.57;101115.79;1702413;83;27554;-58
2022/07/14 02:32:41;;;;;;;;;;;;;;;18.14;60.25;101113.56;1688453;83;25733;-59
2022/07/14 02:35:08;;;;;;;;;;;;;;;18.17;60.43;101115.08;1708092;83;25766;-59
2022/07/14 02:37:35;;;;;;;;;;;;;;;18.15;60.50;101112.54;1711093;81;26114;-59
2022/07/14 02:40:05;;;;;;;;;;;;;;;18.13;60.88;101120.89;1696047;83;25490;-60
2022/07/14 02:42:32;;;;;;;;;;;;;;;18.11;61.28;101128.39;1665520;84;27700;-59
2022/07/14 02:44:58;;;;;;;;;;;;;;;18.09;61.22;101123.62;1663852;84;25864;-59
2022/07/14 02:47:25;;;;;;;;;;;;;;;18.06;61.03;101122.64;1690145;82;25730;-59
2022/07/14 02:49:52;;;;;;;;;;;;;;;18.03;61.50;101120.75;1694975;83;26146;-59
2022/07/14 02:52:19;;;;;;;;;;;;;;;18.02;61.77;101126.72;1701730;82;25706;-59
2022/07/14 02:54:47;;;;;;;;;;;;;;;17.98;62.17;101129.45;1693837;83;27704;-59
2022/07/14 02:57:15;;;;;;;;;;;;;;;17.93;62.17;101129.11;1700987;83;25833;-59
2022/07/14 02:59:42;;;;;;;;;;;;;;;17.91;62.23;101128.43;1693601;82;25478;-59
2022/07/14 03:02:09;;;;;;;;;;;;;;;17.87;61.80;101129.83;1691774;83;25958;-59
2022/07/14 03:04:37;;;;;;;;;;;;;;;17.87;61.53;101135.27;1701136;82;25883;-59
2022/07/14 03:07:05;;;;;;;;;;;;;;;17.88;61.66;101141.05;1701700;83;27507;-59
2022/07/14 03:09:31;;;;;;;;;;;;;;;17.89;61.80;101138.64;1715202;82;25815;-59
2022/07/14 03:11:59;;;;;;;;;;;;;;;17.84;62.06;101142.75;1706063;83;25841;-59
2022/07/14 03:14:26;;;;;;;;;;;;;;;17.82;61.92;101143.43;1702039;82;26087;-58
2022/07/14 03:16:52;;;;;;;;;;;;;;;17.83;61.91;101143.77;1715339;83;26035;-59
2022/07/14 03:19:19;;;;;;;;;;;;;;;17.86;61.72;101142.56;1701586;83;27651;-59
2022/07/14 03:21:46;;;;;;;;;;;;;;;17.90;62.02;101139.84;1698924;82;25749;-60
2022/07/14 03:24:14;;;;;;;;;;;;;;;17.94;61.99;101140.34;1692295;83;25697;-59
2022/07/14 03:26:40;;;;;;;;;;;;;;;17.97;61.82;101136.78;1700896;83;26727;-60
2022/07/14 03:29:07;;;;;;;;;;;;;;;18.02;61.95;101138.97;1729761;80;26379;-59
2022/07/14 03:31:34;;;;;;;;;;;;;;;18.07;61.74;101143.36;1708041;83;27421;-59
2022/07/14 03:34:02;;;;;;;;;;;;;;;18.13;61.72;101136.36;1708357;82;25706;-59
2022/07/14 03:36:29;;;;;;;;;;;;;;;18.18;61.52;101131.25;1712778;82;25797;-59
2022/07/14 03:38:55;;;;;;;;;;;;;;;18.27;61.43;101136.13;1708940;82;26123;-59
2022/07/14 03:41:23;;;;;;;;;;;;;;;18.38;61.57;101128.92;1687248;82;25681;-59
2022/07/14 03:43:50;;;;;;;;;;;;;;;18.46;61.59;101132.13;1670066;84;27532;-59
2022/07/14 03:46:18;;;;;;;;;;;;;;;18.49;61.89;101138.56;1680699;83;25757;-59
2022/07/14 03:48:46;;;;;;;;;;;;;;;18.53;62.15;101133.09;1696649;82;25762;-59
2022/07/14 03:51:13;;;;;;;;;;;;;;;18.56;61.10;101137.33;1698885;82;26108;-59
2022/07/14 03:53:40;;;;;;;;;;;;;;;18.60;61.13;101135.43;1699736;83;26026;-60
2022/07/14 03:56:07;;;;;;;;;;;;;;;18.68;60.53;101130.95;1697153;83;27655;-60
2022/07/14 03:58:38;;;;;;;;;;;;;;;18.74;60.27;101134.30;1700904;82;25915;-59
2022/07/14 04:01:05;;;;;;;;;;;;;;;18.78;59.66;101132.39;1692974;83;25732;-59
2022/07/14 04:03:32;;;;;;;;;;;;;;;18.83;59.16;101135.94;1688116;83;26960;-59
2022/07/14 04:06:00;;;;;;;;;;;;;;;18.89;58.63;101135.73;1693644;83;25505;-60
2022/07/14 04:08:27;;;;;;;;;;;;;;;18.95;58.60;101140.50;1719405;81;27580;-59
2022/07/14 04:10:55;;;;;;;;;;;;;;;19.04;58.01;101138.05;1700099;82;25961;-59
2022/07/14 04:13:23;;;;;;;;;;;;;;;19.10;57.66;101137.80;1673811;83;25803;-59
2022/07/14 04:15:49;;;;;;;;;;;;;;;19.19;57.30;101139.95;1701911;83;26107;-59
2022/07/14 04:18:16;;;;;;;;;;;;;;;19.24;57.21;101144.32;1705965;83;26207;-59
2022/07/14 04:20:49;;;;;;;;;;;;;;;19.32;56.63;101137.42;1706534;83;28295;-59
2022/07/14 04:23:17;;;;;;;;;;;;;;;19.38;56.24;101142.66;1711726;82;25721;-59
2022/07/14 04:25:44;;;;;;;;;;;;;;;19.45;55.41;101149.09;1702240;82;26949;-60
2022/07/14 04:28:11;;;;;;;;;;;;;;;19.53;55.19;101148.14;1695400;83;26096;-60
2022/07/14 04:30:39;;;;;;;;;;;;;;;19.62;54.93;101147.55;1694205;82;25738;-60
2022/07/14 04:33:06;;;;;;;;;;;;;;;19.69;54.26;101146.60;1701022;83;28298;-59
2022/07/14 04:35:34;;;;;;;;;;;;;;;19.77;53.47;101154.36;1693341;82;25744;-59
2022/07/14 04:38:01;;;;;;;;;;;;;;;19.83;53.22;101150.91;1710283;82;25763;-60
2022/07/14 04:40:30;;;;;;;;;;;;;;;19.91;53.02;101160.89;1685570;82;26089;-59
2022/07/14 04:42:57;;;;;;;;;;;;;;;19.96;52.08;101161.19;1686189;83;25916;-59
2022/07/14 04:45:24;;;;;;;;;;;;;;;20.02;52.29;101159.06;1672770;84;27425;-60
2022/07/14 04:47:51;;;;;;;;;;;;;;;20.05;52.34;101164.66;1667032;84;25747;-59
2022/07/14 04:53:04;;;;;;;;;;;;;;;20.14;52.80;101167.61;1678823;84;26903;-60
2022/07/14 04:55:36;;;;;;;;;;;;;;;20.14;52.87;101168.48;1679593;84;25821;-59
2022/07/14 04:58:20;;;;;;;;;;;;;;;20.17;52.88;101165.34;1690083;84;27647;-59
2022/07/14 05:00:46;;;;;;;;;;;;;;;20.20;52.08;101169.61;1674440;83;25859;-60
2022/07/14 05:03:14;;;;;;;;;;;;;;;20.25;52.62;101168.50;1671267;84;25817;-60
2022/07/14 05:05:40;;;;;;;;;;;;;;;20.28;52.46;101166.77;1675342;83;26127;-60
2022/07/14 05:08:10;;;;;;;;;;;;;;;20.34;52.31;101170.62;1649598;84;25952;-60
2022/07/14 05:10:38;;;;;;;;;;;;;;;20.39;52.20;101167.31;1662295;83;27452;-59
2022/07/14 05:13:05;;;;;;;;;;;;;;;20.43;51.98;101169.97;1675428;84;25781;-59
2022/07/14 05:15:31;;;;;;;;;;;;;;;20.46;50.91;101173.17;1664627;84;25797;-59
2022/07/14 05:17:59;;;;;;;;;;;;;;;20.54;51.15;101176.81;1660327;84;26061;-59
2022/07/14 05:20:26;;;;;;;;;;;;;;;20.58;51.21;101173.51;1673552;83;25894;-59
2022/07/14 05:22:52;;;;;;;;;;;;;;;20.63;50.92;101176.53;1670695;84;27453;-59
2022/07/14 05:25:20;;;;;;;;;;;;;;;20.70;50.99;101173.02;1666569;84;25433;-60
2022/07/14 05:27:46;;;;;;;;;;;;;;;20.75;50.83;101175.53;1669004;84;25885;-57
2022/07/14 05:30:21;;;;;;;;;;;;;;;20.80;49.63;101175.78;1662999;84;26142;-60
2022/07/14 05:32:48;;;;;;;;;;;;;;;20.88;48.92;101172.61;1674318;84;26001;-59
2022/07/14 05:35:15;;;;;;;;;;;;;;;20.92;48.75;101177.50;1674414;83;27521;-60
2022/07/14 05:37:42;;;;;;;;;;;;;;;20.99;49.01;101165.77;1683978;82;25752;-60
2022/07/14 05:40:11;;;;;;;;;;;;;;;21.07;49.04;101165.63;1683094;84;25744;-61
2022/07/14 05:42:37;;;;;;;;;;;;;;;21.12;48.79;101165.87;1683459;84;26085;-60
2022/07/14 05:45:07;;;;;;;;;;;;;;;21.20;48.83;101165.73;1673486;84;25941;-60
2022/07/14 05:47:35;;;;;;;;;;;;;;;21.27;48.94;101163.06;1703169;82;28131;-60
2022/07/14 05:50:03;;;;;;;;;;;;;;;21.37;48.56;101173.69;1693875;83;25847;-60
2022/07/14 05:52:31;;;;;;;;;;;;;;;21.44;48.59;101165.00;1699082;82;25698;-60
2022/07/14 05:54:58;;;;;;;;;;;;;;;21.52;48.35;101173.56;1697631;83;26264;-59
2022/07/14 05:57:25;;;;;;;;;;;;;;;21.60;48.31;101178.95;1691610;83;26626;-60
2022/07/14 05:59:52;;;;;;;;;;;;;;;21.71;48.36;101179.74;1700750;83;27489;-60
2022/07/14 06:02:19;;;;;;;;;;;;;;;21.78;47.98;101178.42;1697792;82;25696;-61
2022/07/14 06:04:46;;;;;;;;;;;;;;;21.88;47.76;101177.55;1696513;83;25904;-60
2022/07/14 06:07:12;;;;;;;;;;;;;;;21.97;47.69;101178.75;1699089;82;28314;-59
2022/07/14 06:09:40;;;;;;;;;;;;;;;22.04;47.71;101176.37;1695252;81;25755;-59
2022/07/14 06:12:10;;;;;;;;;;;;;;;22.13;47.48;101170.19;1694823;82;27536;-61
2022/07/14 06:14:40;;;;;;;;;;;;;;;22.22;47.56;101167.27;1694525;82;25847;-61
2022/07/14 06:17:07;;;;;;;;;;;;;;;22.27;47.43;101168.36;1688905;83;25763;-61
2022/07/14 06:19:34;;;;;;;;;;;;;;;22.35;47.24;101178.31;1700764;82;26152;-62
2022/07/14 06:22:10;;;;;;;;;;;;;;;22.46;47.43;101176.89;1701899;82;25860;-61
2022/07/14 06:24:36;;;;;;;;;;;;;;;22.57;47.46;101165.84;1693959;81;28381;-61
2022/07/14 06:27:03;;;;;;;;;;;;;;;22.72;47.25;101172.03;1679308;83;25842;-60
2022/07/14 06:29:31;;;;;;;;;;;;;;;22.83;47.19;101170.56;1696577;82;25761;-61
2022/07/14 06:31:58;;;;;;;;;;;;;;;22.97;47.32;101168.69;1693729;83;26324;-61
2022/07/14 06:34:25;;;;;;;;;;;;;;;23.08;47.21;101169.95;1685915;83;25873;-60
2022/07/14 06:36:56;;;;;;;;;;;;;;;23.14;46.94;101172.72;1663645;84;27686;-61
2022/07/14 06:39:23;;;;;;;;;;;;;;;23.25;46.68;101169.89;1665027;84;25870;-61
2022/07/14 06:41:50;;;;;;;;;;;;;;;23.37;46.92;101168.72;1669629;84;25838;-61
2022/07/14 06:44:18;;;;;;;;;;;;;;;23.54;46.01;101173.77;1672264;85;26129;-60
2022/07/14 06:46:45;;;;;;;;;;;;;;;23.70;45.45;101166.48;1699365;83;25802;-60
2022/07/14 06:49:11;;;;;;;;;;;;;;;23.86;45.06;101169.28;1708308;82;27541;-61
2022/07/14 06:51:38;;;;;;;;;;;;;;;24.02;45.05;101163.89;1700862;83;25919;-61
2022/07/14 06:54:05;;;;;;;;;;;;;;;24.20;44.37;101156.33;1694143;83;25477;-61
2022/07/14 06:56:32;;;;;;;;;;;;;;;24.36;43.62;101167.34;1693575;83;28243;-60
2022/07/14 06:58:58;;;;;;;;;;;;;;;24.49;43.54;101162.31;1676607;83;25709;-60
2022/07/14 07:01:25;;;;;;;;;;;;;;;24.63;43.29;101160.88;1671222;83;27821;-60
2022/07/14 07:03:51;;;;;;;;;;;;;;;24.69;42.78;101161.39;1665641;83;26670;-60
2022/07/14 07:09:03;;;;;;;;;;;;;;;24.83;42.89;101161.60;1666677;84;26125;-60
2022/07/14 07:11:30;;;;;;;;;;;;;;;24.89;42.39;101162.63;1670623;83;25836;-60
2022/07/14 07:13:56;;;;;;;;;;;;;;;24.96;41.86;101164.83;1666814;84;27448;-60
2022/07/14 07:16:25;;;;;;;;;;;;;;;25.05;40.93;101161.25;1659487;83;25464;-60
2022/07/14 07:18:51;;;;;;;;;;;;;;;25.18;41.89;101159.47;1667692;83;25701;-60
2022/07/14 07:21:20;;;;;;;;;;;;;;;25.35;41.29;101148.71;1653595;84;28214;-60
2022/07/14 07:23:47;;;;;;;;;;;;;;;25.46;40.21;101154.90;1684784;83;26024;-61
2022/07/14 07:26:14;;;;;;;;;;;;;;;25.50;39.83;101149.78;1687640;84;27672;-60
2022/07/14 07:28:41;;;;;;;;;;;;;;;25.53;39.66;101148.78;1684332;83;25840;-60
2022/07/14 07:31:07;;;;;;;;;;;;;;;25.53;39.98;101152.09;1684325;83;25754;-62
2022/07/14 07:33:34;;;;;;;;;;;;;;;25.52;38.80;101147.09;1689373;82;26262;-61
2022/07/14 07:36:00;;;;;;;;;;;;;;;25.54;38.58;101134.50;1674254;84;25702;-61
2022/07/14 07:38:28;;;;;;;;;;;;;;;25.56;38.63;101142.83;1678384;83;28319;-60
2022/07/14 07:40:54;;;;;;;;;;;;;;;25.57;38.24;101142.28;1670015;84;25726;-60
2022/07/14 07:43:21;;;;;;;;;;;;;;;25.62;38.08;101136.95;1663754;84;26229;-60
2022/07/14 07:45:49;;;;;;;;;;;;;;;25.62;38.57;101146.05;1656372;85;26568;-60
2022/07/14 07:48:16;;;;;;;;;;;;;;;25.62;38.91;101146.59;1665007;84;25907;-61
2022/07/14 07:50:44;;;;;;;;;;;;;;;25.63;38.59;101140.84;1651185;84;27534;-61
2022/07/14 07:53:12;;;;;;;;;;;;;;;25.67;38.44;101138.47;1664466;83;25747;-61
2022/07/14 07:55:39;;;;;;;;;;;;;;;25.72;38.42;101137.79;1643104;85;26588;-61
2022/07/14 07:58:07;;;;;;;;;;;;;;;25.66;38.03;101145.05;1630018;86;26938;-61
2022/07/14 08:00:34;;;;;;;;;;;;;;;25.67;38.35;101132.14;1637373;86;25795;-61
2022/07/14 08:03:02;;;;;;;;;;;;;;;25.68;38.25;101140.16;1645482;85;28288;-61
2022/07/14 08:05:30;;;;;;;;;;;;;;;25.75;38.52;101134.04;1655687;84;25538;-59
2022/07/14 08:07:57;;;;;;;;;;;;;;;25.80;38.56;101136.11;1663618;84;25490;-61
2022/07/14 08:10:23;;;;;;;;;;;;;;;25.86;38.82;101126.94;1670209;84;26113;-61
2022/07/14 08:12:53;;;;;;;;;;;;;;;25.91;38.46;101122.95;1674972;84;25974;-61
2022/07/14 08:15:20;;;;;;;;;;;;;;;25.95;37.67;101123.33;1673133;84;28291;-60
2022/07/14 08:17:46;;;;;;;;;;;;;;;26.03;37.59;101118.05;1670630;84;26450;-62
2022/07/14 08:20:13;;;;;;;;;;;;;;;26.07;37.59;101128.38;1673479;84;25919;-60
2022/07/14 08:22:39;;;;;;;;;;;;;;;26.03;37.11;101127.70;1677417;84;26164;-62
2022/07/14 08:25:08;;;;;;;;;;;;;;;26.05;37.46;101122.77;1669206;84;25780;-60
2022/07/14 08:27:35;;;;;;;;;;;;;;;26.13;37.52;101121.14;1676777;84;27480;-60
2022/07/14 08:30:03;;;;;;;;;;;;;;;26.25;37.49;101130.29;1673706;85;25859;-58
2022/07/14 08:32:47;;;;;;;;;;;;;;;26.41;36.28;101132.09;1670485;84;25727;-60
2022/07/14 08:35:16;;;;;;;;;;;;;;;26.65;36.97;101117.02;1633481;85;26116;-60
2022/07/14 08:37:43;;;;;;;;;;;;;;;27.06;36.16;101124.16;1643646;86;25723;-60
2022/07/14 08:40:15;;;;;;;;;;;;;;;27.30;35.30;101110.66;1633956;87;27503;-61
2022/07/14 08:42:44;;;;;;;;;;;;;;;27.42;35.61;101112.03;1632682;86;25727;-61
2022/07/14 08:45:13;;;;;;;;;;;;;;;27.44;35.52;101107.14;1634936;86;25925;-61
2022/07/14 08:47:41;;;;;;;;;;;;;;;27.45;35.21;101114.35;1604319;88;26323;-61
2022/07/14 08:50:11;;;;;;;;;;;;;;;27.51;35.19;101111.17;1617961;86;25921;-61
2022/07/14 08:52:38;;;;;;;;;;;;;;;27.57;34.86;101106.57;1622631;86;27567;-61
2022/07/14 08:55:09;;;;;;;;;;;;;;;27.61;34.99;101107.23;1661085;84;25779;-61
2022/07/14 08:57:36;;;;;;;;;;;;;;;27.73;35.29;101107.77;1660220;84;26541;-61
2022/07/14 09:00:11;;;;;;;;;;;;;;;27.87;35.20;101098.66;1614671;86;26127;-61
2022/07/14 09:02:38;;;;;;;;;;;;;;;28.00;34.49;101090.63;1618931;86;25774;-61
2022/07/14 09:05:07;;;;;;;;;;;;;;;28.16;34.04;101096.78;1613610;86;27523;-61
2022/07/14 09:07:37;;;;;;;;;;;;;;;28.40;34.86;101089.79;1604328;86;25795;-60
2022/07/14 09:10:13;;;;;;;;;;;;;;;28.72;34.19;101078.19;1604039;87;26016;-60
2022/07/14 09:12:41;;;;;;;;;;;;;;;28.99;32.69;101081.67;1642212;85;26192;-61
2022/07/14 09:18:31;;;;;;;;;;;;;;;29.31;33.09;101089.38;1646194;84;25804;-60
2022/07/14 09:20:58;;;;;;;;;;;;;;;29.24;31.11;101090.94;1657327;85;25732;-61
2022/07/14 09:23:30;;;;;;;;;;;;;;;29.08;30.60;101090.41;1652930;85;26327;-61
2022/07/14 09:26:11;;;;;;;;;;;;;;;29.14;31.06;101081.08;1644734;86;26942;-60
2022/07/14 09:28:40;;;;;;;;;;;;;;;29.24;31.33;101070.69;1650340;86;25865;-61
2022/07/14 09:33:55;;;;;;;;;;;;;;;29.67;30.42;101061.63;1644245;86;25796;-61
2022/07/14 09:36:29;;;;;;;;;;;;;;;30.05;31.31;101069.32;1655110;85;25839;-61
2022/07/14 09:39:00;;;;;;;;;;;;;;;30.30;29.49;101057.66;1653777;86;26260;-60
2022/07/14 09:41:29;;;;;;;;;;;;;;;30.60;29.71;101063.23;1647144;85;26277;-60
2022/07/14 09:44:17;;;;;;;;;;;;;;;30.82;28.52;101074.24;1658266;86;27753;-60
2022/07/14 09:46:56;;;;;;;;;;;;;;;30.97;28.86;101069.93;1640417;86;25817;-61
2022/07/14 09:49:28;;;;;;;;;;;;;;;31.17;28.60;101069.26;1674818;84;25798;-61
2022/07/14 09:51:58;;;;;;;;;;;;;;;31.44;28.44;101059.97;1649801;86;26088;-61
2022/07/14 09:54:47;;;;;;;;;;;;;;;31.76;28.01;101057.09;1659877;85;25775;-61
2022/07/14 09:57:19;;;;;;;;;;;;;;;32.01;27.86;101055.49;1630371;85;27558;-60
2022/07/14 09:59:48;;;;;;;;;;;;;;;31.89;27.36;101054.89;1632874;86;26014;-60
2022/07/14 10:02:19;;;;;;;;;;;;;;;32.15;27.63;101055.23;1636929;87;25915;-61
2022/07/14 10:04:46;;;;;;;;;;;;;;;32.52;27.86;101067.30;1633076;87;26260;-60
2022/07/14 10:07:13;;;;;;;;;;;;;;;32.69;24.80;101050.30;1656291;84;25983;-60
2022/07/14 10:09:43;;;;;;;;;;;;;;;32.66;24.40;101060.63;1650949;86;27494;-60
2022/07/14 10:12:10;;;;;;;;;;;;;;;32.81;25.03;101050.61;1642280;86;25831;-61
2022/07/14 10:14:37;;;;;;;;;;;;;;;33.23;24.23;101050.27;1648200;86;25719;-61
2022/07/14 10:17:04;;;;;;;;;;;;;;;33.72;23.80;101053.46;1648426;86;26904;-61
2022/07/14 10:19:31;;;;;;;;;;;;;;;34.19;23.19;101045.72;1650248;86;26608;-61
2022/07/14 10:21:58;;;;;;;;;;;;;;;34.54;23.64;101046.59;1650883;86;27584;-61
2022/07/14 10:24:26;;;;;;;;;;;;;;;34.97;22.83;101059.91;1640863;85;25803;-60
2022/07/14 10:26:53;;;;;;;;;;;;;;;35.42;22.57;101052.77;1650758;86;25937;-61
2022/07/14 10:29:21;;;;;;;;;;;;;;;35.38;21.74;101052.50;1651500;86;26065;-60
2022/07/14 10:32:06;;;;;;;;;;;;;;;35.37;20.88;101043.84;1652238;85;25713;-61
2022/07/14 10:34:51;;;;;;;;;;;;;;;35.83;21.81;101034.03;1620989;85;28322;-62
2022/07/14 10:37:25;;;;;;;;;;;;;;;36.34;20.28;101024.06;1647242;86;25559;-62
2022/07/14 10:40:30;;;;;;;;;;;;;;;36.18;20.97;101029.65;1645905;85;25920;-61
2022/07/14 10:43:07;;;;;;;;;;;;;;;36.61;20.88;101035.12;1650332;85;26125;-62
2022/07/14 10:45:35;;;;;;;;;;;;;;;36.75;19.99;101048.36;1653379;85;25796;-62
2022/07/14 10:48:01;;;;;;;;;;;;;;;36.98;20.12;101032.55;1635555;85;28335;-59
2022/07/14 10:50:30;;;;;;;;;;;;;;;37.15;19.09;101030.53;1615105;87;25811;-60
2022/07/14 10:53:06;;;;;;;;;;;;;;;37.46;18.98;101023.48;1631759;86;25744;-60
2022/07/14 10:55:36;;;;;;;;;;;;;;;37.81;18.70;101033.67;1628656;86;26154;-61
2022/07/14 10:58:09;;;;;;;;;;;;;;;38.15;19.19;101021.11;1628330;86;25839;-59
2022/07/14 11:00:47;;;;;;;;;;;;;;;38.82;18.38;101021.70;1631400;86;27486;-60
2022/07/14 11:03:34;;;;;;;;;;;;;;;38.36;17.94;101027.11;1630793;86;25911;-60
2022/07/14 11:06:08;;;;;;;;;;;;;;;37.70;17.99;101012.02;1625335;86;25771;-60
2022/07/14 11:08:37;;;;;;;;;;;;;;;37.92;19.06;101012.67;1631854;87;26259;-60
2022/07/14 11:11:10;;;;;;;;;;;;;;;37.50;19.24;101007.70;1633933;86;25753;-60
2022/07/14 11:13:52;;;;;;;;;;;;;;;37.36;19.00;101016.09;1599683;86;27506;-60
2022/07/14 11:16:19;;;;;;;;;;;;;;;36.71;19.28;101006.11;1618112;87;25866;-59
2022/07/14 11:18:45;;;;;;;;;;;;;;;37.21;19.83;100997.61;1636901;86;25837;-61
2022/07/14 11:21:19;;;;;;;;;;;;;;;37.07;19.90;101003.21;1632976;86;26115;-61
2022/07/14 11:23:54;;;;;;;;;;;;;;;37.74;19.39;101004.06;1632194;86;25792;-61
2022/07/14 11:26:37;;;;;;;;;;;;;;;38.15;18.77;100994.42;1633620;86;27490;-61
2022/07/14 11:29:05;;;;;;;;;;;;;;;37.68;18.84;101001.12;1636247;86;26114;-61
2022/07/14 11:31:46;;;;;;;;;;;;;;;37.06;19.30;101009.95;1650538;85;25799;-61
2022/07/14 11:37:14;;;;;;;;;;;;;;;37.70;19.05;101004.42;1623958;87;25787;-61
2022/07/14 11:39:43;;;;;;;;;;;;;;;38.21;18.25;101010.84;1636343;86;27588;-61
2022/07/14 11:42:14;;;;;;;;;;;;;;;38.86;17.72;101006.45;1641435;86;25807;-61
2022/07/14 11:44:48;;;;;;;;;;;;;;;38.14;18.09;101002.63;1646639;86;36464;-61
2022/07/14 11:47:21;;;;;;;;;;;;;;;37.62;18.55;101000.95;1658621;85;26128;-61
2022/07/14 11:49:59;;;;;;;;;;;;;;;37.79;19.19;100991.89;1655057;85;25515;-61
2022/07/14 11:52:34;;;;;;;;;;;;;;;37.48;19.18;100998.77;1659286;85;27663;-61
2022/07/14 11:55:07;;;;;;;;;;;;;;;37.37;19.32;100998.94;1656433;85;25836;-61
2022/07/14 11:57:34;;;;;;;;;;;;;;;37.69;19.76;100995.77;1659828;85;25780;-62
2022/07/14 12:00:09;;;;;;;;;;;;;;;38.59;18.23;100997.57;1625898;85;26414;-61
2022/07/14 12:02:50;;;;;;;;;;;;;;;39.26;18.62;100992.98;1627246;86;25493;-62
2022/07/14 12:05:22;;;;;;;;;;;;;;;40.18;17.78;100985.07;1638068;85;27579;-61
2022/07/14 12:07:50;;;;;;;;;;;;;;;40.20;17.69;100978.53;1665203;84;25737;-61
2022/07/14 12:10:37;;;;;;;;;;;;;;;39.78;17.51;100979.58;1667201;85;25735;-61
2022/07/14 12:13:04;;;;;;;;;;;;;;;39.26;18.08;100988.75;1665908;85;26277;-61
2022/07/14 12:15:32;;;;;;;;;;;;;;;39.99;17.14;100980.33;1663699;86;25713;-61
2022/07/14 12:18:01;;;;;;;;;;;;;;;39.82;17.49;100973.55;1652047;85;27537;-62
2022/07/14 12:20:30;;;;;;;;;;;;;;;40.65;16.84;100968.00;1661400;84;26312;-60
2022/07/14 12:22:57;;;;;;;;;;;;;;;41.41;16.20;100965.48;1682721;84;25437;-60
2022/07/14 12:25:27;;;;;;;;;;;;;;;41.71;16.05;100962.61;1642027;86;26354;-61
2022/07/14 12:27:56;;;;;;;;;;;;;;;42.00;15.13;100962.31;1692039;82;26171;-61
2022/07/14 12:30:22;;;;;;;;;;;;;;;41.81;15.56;100959.97;1694712;82;27656;-61
2022/07/14 12:32:53;;;;;;;;;;;;;;;42.07;14.83;100971.89;1692581;82;25690;-61
2022/07/14 12:35:23;;;;;;;;;;;;;;;42.36;14.56;100961.63;1694399;82;25757;-62
2022/07/14 12:37:51;;;;;;;;;;;;;;;42.51;14.28;100962.95;1685394;83;26122;-62
2022/07/14 12:40:19;;;;;;;;;;;;;;;42.68;15.07;100965.34;1687671;83;26398;-62
2022/07/14 12:42:46;;;;;;;;;;;;;;;43.25;14.04;100966.48;1697149;82;28328;-62
2022/07/14 12:45:12;;;;;;;;;;;;;;;43.43;13.75;100951.45;1689204;83;25718;-62
2022/07/14 12:47:50;;;;;;;;;;;;;;;42.73;14.00;100962.86;1697122;83;25741;-61
2022/07/14 12:50:21;;;;;;;;;;;;;;;42.27;14.05;100966.55;1695968;82;26166;-61
2022/07/14 12:52:55;;;;;;;;;;;;;;;42.82;14.44;100958.80;1670365;84;25963;-61
2022/07/14 12:55:39;;;;;;;;;;;;;;;43.34;13.97;100950.77;1662101;85;27534;-61
2022/07/14 12:58:07;;;;;;;;;;;;;;;43.15;13.17;100949.95;1666883;84;26093;-61
2022/07/14 13:00:35;;;;;;;;;;;;;;;42.63;14.66;100945.17;1671742;84;25772;-60
2022/07/14 13:03:15;;;;;;;;;;;;;;;42.75;15.02;100952.91;1676056;83;26450;-61
2022/07/14 13:05:54;;;;;;;;;;;;;;;43.79;14.15;100946.08;1681108;84;26081;-62